createdAt,value
2022-12-09T00:00:01.953Z,1.00
2022-12-09T00:02:31.110Z,1.00
2022-12-09T00:05:00.124Z,0.83
2022-12-09T00:07:28.507Z,0.80
2022-12-09T00:09:56.723Z,2.40
2022-12-09T00:12:26.503Z,0.50
2022-12-09T00:14:54.718Z,1.70
2022-12-09T00:17:23.303Z,2.10
2022-12-09T00:19:51.647Z,2.20
2022-12-09T00:22:19.917Z,1.07
2022-12-09T00:24:48.205Z,0.93
2022-12-09T00:27:16.654Z,0.57
2022-12-09T00:29:46.509Z,0.83
2022-12-09T00:32:15.462Z,0.53
2022-12-09T00:34:43.929Z,0.77
2022-12-09T00:37:12.224Z,0.70
2022-12-09T00:39:40.582Z,0.50
2022-12-09T00:42:08.949Z,0.40
2022-12-09T00:44:37.200Z,0.30
2022-12-09T00:47:06.919Z,0.40
2022-12-09T00:49:35.702Z,0.57
2022-12-09T00:52:04.094Z,0.33
2022-12-09T00:54:32.641Z,0.40
2022-12-09T00:57:01.084Z,0.30
2022-12-09T00:59:29.659Z,0.40
2022-12-09T01:02:00.184Z,1.13
2022-12-09T01:04:30.129Z,1.00
2022-12-09T01:06:58.807Z,0.60
2022-12-09T01:09:27.422Z,0.37
2022-12-09T01:11:55.787Z,0.30
2022-12-09T01:14:24.089Z,0.73
2022-12-09T01:16:52.797Z,0.43
2022-12-09T01:19:21.332Z,0.30
2022-12-09T01:21:54.934Z,0.70
2022-12-09T01:24:23.530Z,0.30
2022-12-09T01:26:51.792Z,1.20
2022-12-09T01:29:20.135Z,0.30
2022-12-09T01:31:48.451Z,0.60
2022-12-09T01:34:16.995Z,1.57
2022-12-09T01:36:45.409Z,0.40
2022-12-09T01:39:16.804Z,0.50
2022-12-09T01:41:45.936Z,0.20
2022-12-09T01:44:18.332Z,0.30
2022-12-09T01:46:47.646Z,0.50
2022-12-09T01:49:20.890Z,0.50
2022-12-09T01:51:56.285Z,0.73
2022-12-09T01:54:26.317Z,0.30
2022-12-09T01:56:56.149Z,0.60
2022-12-09T01:59:26.576Z,0.80
2022-12-09T02:02:00.015Z,0.33
2022-12-09T02:04:30.992Z,0.50
2022-12-09T02:07:03.848Z,0.43
2022-12-09T02:09:33.551Z,0.47
2022-12-09T02:12:13.391Z,0.63
2022-12-09T02:14:44.280Z,0.30
2022-12-09T02:17:27.050Z,0.43
2022-12-09T02:20:02.776Z,0.30
2022-12-09T02:22:36.301Z,0.30
2022-12-09T02:25:20.641Z,0.43
2022-12-09T02:27:59.163Z,0.40
2022-12-09T02:30:34.769Z,0.90
2022-12-09T02:33:18.563Z,0.40
2022-12-09T02:35:53.821Z,1.17
2022-12-09T02:38:26.975Z,1.33
2022-12-09T02:41:00.389Z,0.43
2022-12-09T02:43:33.073Z,0.60
2022-12-09T02:46:03.545Z,2.30
2022-12-09T02:48:36.361Z,2.30
2022-12-09T02:51:09.064Z,0.70
2022-12-09T02:53:39.698Z,0.97
2022-12-09T02:56:09.604Z,0.97
2022-12-09T02:58:38.044Z,0.67
2022-12-09T03:01:07.418Z,0.50
2022-12-09T03:03:36.367Z,0.60
2022-12-09T03:06:09.690Z,0.40
2022-12-09T03:08:46.092Z,0.87
2022-12-09T03:11:17.270Z,0.60
2022-12-09T03:13:53.381Z,1.53
2022-12-09T03:16:28.242Z,2.00
2022-12-09T03:19:01.943Z,4.20
2022-12-09T03:21:34.019Z,0.57
2022-12-09T03:24:04.053Z,1.17
2022-12-09T03:26:35.224Z,1.17
2022-12-09T03:29:08.285Z,0.30
2022-12-09T03:31:39.531Z,0.40
2022-12-09T03:34:11.080Z,1.00
2022-12-09T03:36:42.830Z,1.43
2022-12-09T03:39:15.572Z,0.63
2022-12-09T03:41:47.023Z,0.50
2022-12-09T03:44:20.911Z,0.50
2022-12-09T03:46:49.918Z,0.67
2022-12-09T03:49:18.452Z,0.77
2022-12-09T03:51:52.091Z,0.90
2022-12-09T03:54:25.745Z,0.93
2022-12-09T03:57:00.435Z,0.50
2022-12-09T03:59:32.312Z,0.73
2022-12-09T04:02:00.935Z,2.10
2022-12-09T04:04:29.622Z,0.97
2022-12-09T04:06:59.883Z,0.60
2022-12-09T04:09:28.403Z,0.30
2022-12-09T04:11:56.824Z,0.43
2022-12-09T04:14:25.469Z,1.13
2022-12-09T04:16:54.130Z,0.73
2022-12-09T04:19:22.512Z,0.87
2022-12-09T04:21:50.820Z,2.00
2022-12-09T04:24:20.843Z,1.47
2022-12-09T04:26:49.421Z,0.90
2022-12-09T04:29:17.781Z,2.47
2022-12-09T04:31:46.428Z,1.90
2022-12-09T04:34:14.877Z,0.70
2022-12-09T04:36:43.260Z,2.00
2022-12-09T04:39:11.455Z,0.60
2022-12-09T04:41:41.324Z,1.30
2022-12-09T04:44:09.666Z,1.93
2022-12-09T04:46:38.024Z,1.30
2022-12-09T04:49:06.318Z,1.23
2022-12-09T04:51:39.427Z,1.07
2022-12-09T04:54:08.933Z,2.60
2022-12-09T04:56:37.540Z,2.77
2022-12-09T04:59:07.950Z,2.17
2022-12-09T05:01:36.393Z,1.43
2022-12-09T05:04:05.548Z,2.73
2022-12-09T05:06:34.566Z,2.30
2022-12-09T05:09:03.730Z,0.93
2022-12-09T05:11:32.861Z,0.67
2022-12-09T05:14:01.349Z,0.50
2022-12-09T05:16:31.297Z,1.50
2022-12-09T05:19:01.543Z,1.03
2022-12-09T05:21:30.275Z,1.23
2022-12-09T05:23:59.080Z,0.60
2022-12-09T05:26:27.750Z,2.13
2022-12-09T05:28:56.193Z,1.40
2022-12-09T05:31:25.339Z,0.90
2022-12-09T05:33:55.560Z,0.70
2022-12-09T05:36:25.687Z,0.80
2022-12-09T05:38:55.444Z,0.87
2022-12-09T05:41:24.377Z,0.80
2022-12-09T05:43:54.116Z,0.40
2022-12-09T05:46:23.313Z,1.13
2022-12-09T05:48:51.900Z,1.23
2022-12-09T05:51:24.937Z,1.60
2022-12-09T05:53:54.925Z,0.90
2022-12-09T05:56:25.328Z,1.10
2022-12-09T05:58:54.929Z,1.40
2022-12-09T06:01:24.309Z,1.43
2022-12-09T06:03:54.554Z,0.77
2022-12-09T06:06:28.448Z,1.47
2022-12-09T06:08:59.728Z,0.97
2022-12-09T06:11:29.157Z,1.37
2022-12-09T06:13:57.824Z,1.70
2022-12-09T06:16:26.487Z,0.90
2022-12-09T06:18:55.528Z,0.50
2022-12-09T06:21:26.046Z,2.43
2022-12-09T06:23:54.948Z,1.57
2022-12-09T06:26:25.614Z,0.77
2022-12-09T06:28:54.909Z,1.37
2022-12-09T06:31:24.141Z,0.60
2022-12-09T06:33:55.335Z,0.77
2022-12-09T06:36:27.022Z,0.50
2022-12-09T06:38:56.659Z,0.60
2022-12-09T06:41:25.560Z,1.37
2022-12-09T06:43:54.554Z,3.90
2022-12-09T06:46:25.394Z,3.00
2022-12-09T06:48:55.809Z,1.70
2022-12-09T06:51:26.871Z,1.93
2022-12-09T06:53:56.042Z,2.13
2022-12-09T06:56:25.417Z,3.03
2022-12-09T06:58:54.146Z,1.80
2022-12-09T07:01:26.195Z,0.83
2022-12-09T07:03:57.107Z,3.03
2022-12-09T07:06:31.073Z,2.40
2022-12-09T07:09:02.595Z,0.70
2022-12-09T07:11:32.008Z,1.33
2022-12-09T07:14:00.687Z,0.80
2022-12-09T07:16:30.128Z,0.83
2022-12-09T07:18:59.315Z,0.53
2022-12-09T07:21:29.923Z,0.70
2022-12-09T07:24:00.790Z,0.73
2022-12-09T07:26:32.014Z,1.00
2022-12-09T07:29:03.659Z,1.77
2022-12-09T07:31:32.726Z,1.53
2022-12-09T07:34:01.463Z,1.43
2022-12-09T07:36:33.148Z,0.83
2022-12-09T07:39:06.209Z,0.50
2022-12-09T07:41:35.323Z,2.23
2022-12-09T07:44:04.099Z,4.03
2022-12-09T07:46:33.242Z,0.80
2022-12-09T07:49:03.736Z,3.27
2022-12-09T07:51:34.160Z,2.23
2022-12-09T07:54:02.680Z,1.30
2022-12-09T07:56:31.471Z,1.37
2022-12-09T07:59:00.170Z,1.33
2022-12-09T08:01:31.200Z,1.30
2022-12-09T08:04:01.419Z,0.93
2022-12-09T08:06:31.674Z,0.30
2022-12-09T08:09:04.195Z,1.20
2022-12-09T08:11:34.164Z,0.93
2022-12-09T08:14:10.547Z,0.93
2022-12-09T08:16:41.721Z,1.80
2022-12-09T08:19:10.743Z,2.07
2022-12-09T08:21:39.957Z,1.50
2022-12-09T08:24:11.964Z,3.57
2022-12-09T08:26:41.131Z,3.20
2022-12-09T08:29:11.102Z,2.93
2022-12-09T08:31:42.357Z,2.60
2022-12-09T08:34:11.575Z,2.20
2022-12-09T08:36:40.862Z,1.70
2022-12-09T08:39:11.599Z,0.57
2022-12-09T08:41:40.718Z,1.77
2022-12-09T08:44:12.171Z,2.20
2022-12-09T08:46:42.968Z,1.27
2022-12-09T08:49:13.402Z,3.13
2022-12-09T08:51:42.007Z,2.20
2022-12-09T08:54:12.119Z,1.53
2022-12-09T08:56:40.857Z,1.43
2022-12-09T08:59:09.136Z,1.40
2022-12-09T09:01:37.572Z,2.43
2022-12-09T09:04:08.701Z,1.73
2022-12-09T09:06:38.701Z,1.10
2022-12-09T09:09:09.004Z,0.50
2022-12-09T09:11:40.247Z,0.83
2022-12-09T09:14:10.825Z,0.70
2022-12-09T09:16:41.237Z,1.00
2022-12-09T09:19:14.193Z,0.87
2022-12-09T09:21:43.124Z,0.40
2022-12-09T09:24:12.882Z,1.10
2022-12-09T09:26:44.256Z,0.30
2022-12-09T09:29:13.644Z,1.30
2022-12-09T09:31:42.424Z,1.47
2022-12-09T09:34:12.112Z,0.60
2022-12-09T09:36:42.227Z,0.67
2022-12-09T09:39:11.114Z,0.87
2022-12-09T09:41:52.923Z,1.30
2022-12-09T09:44:26.682Z,1.43
2022-12-09T09:46:56.947Z,1.53
2022-12-09T09:49:32.926Z,1.10
2022-12-09T09:52:07.276Z,1.27
2022-12-09T09:54:36.419Z,0.50
2022-12-09T09:57:14.930Z,0.40
2022-12-09T09:59:58.818Z,1.70
2022-12-09T10:02:48.383Z,0.60
2022-12-09T10:05:24.212Z,0.50
2022-12-09T10:07:56.428Z,1.23
2022-12-09T10:10:40.313Z,1.63
2022-12-09T10:13:23.023Z,2.20
2022-12-09T10:16:00.704Z,1.80
2022-12-09T10:18:33.681Z,1.10
2022-12-09T10:21:02.377Z,2.63
2022-12-09T10:23:33.376Z,2.40
2022-12-09T10:26:07.862Z,1.33
2022-12-09T10:28:43.123Z,1.07
2022-12-09T10:31:12.779Z,2.13
2022-12-09T10:33:42.801Z,0.77
2022-12-09T10:36:24.586Z,2.40
2022-12-09T10:38:54.672Z,1.83
2022-12-09T10:41:54.634Z,1.13
2022-12-09T10:44:26.180Z,1.80
2022-12-09T10:47:03.553Z,1.70
2022-12-09T10:49:33.345Z,1.80
2022-12-09T10:52:05.436Z,3.47
2022-12-09T10:54:40.109Z,3.13
2022-12-09T10:57:25.350Z,1.77
2022-12-09T11:00:02.198Z,2.70
2022-12-09T11:02:32.869Z,1.57
2022-12-09T11:05:22.945Z,0.90
2022-12-09T11:07:53.308Z,0.73
2022-12-09T11:10:24.991Z,1.20
2022-12-09T11:12:56.057Z,0.53
2022-12-09T11:15:34.158Z,0.60
2022-12-09T11:18:06.235Z,0.50
2022-12-09T11:20:36.679Z,0.37
2022-12-09T11:23:08.348Z,1.10
2022-12-09T11:25:38.481Z,0.20
2022-12-09T11:28:23.251Z,1.07
2022-12-09T11:31:27.874Z,0.93
2022-12-09T11:33:52.048Z,0.50
2022-12-09T11:36:24.231Z,0.63
2022-12-09T11:38:55.611Z,1.20
2022-12-09T11:41:43.256Z,0.90
2022-12-09T11:44:22.098Z,0.90
2022-12-09T11:47:01.257Z,1.20
2022-12-09T11:49:31.224Z,0.87
2022-12-09T11:52:08.822Z,1.23
2022-12-09T11:54:43.852Z,2.40
2022-12-09T11:57:23.358Z,4.07
2022-12-09T11:59:58.969Z,2.50
2022-12-09T12:02:36.437Z,2.10
2022-12-09T12:05:11.396Z,2.17
2022-12-09T12:07:45.440Z,1.80
2022-12-09T12:10:20.446Z,1.03
2022-12-09T12:13:00.297Z,2.03
2022-12-09T12:15:35.819Z,0.93
2022-12-09T12:18:11.060Z,0.43
2022-12-09T12:20:50.429Z,1.03
2022-12-09T12:23:36.560Z,0.73
2022-12-09T12:26:10.105Z,1.07
2022-12-09T12:28:57.294Z,0.80
2022-12-09T12:31:53.050Z,0.90
2022-12-09T12:34:38.872Z,0.67
2022-12-09T12:37:23.715Z,1.13
2022-12-09T12:40:08.411Z,0.57
2022-12-09T12:43:04.523Z,2.43
2022-12-09T12:45:58.463Z,0.83
2022-12-09T12:48:34.489Z,0.30
2022-12-09T12:51:17.584Z,0.67
2022-12-09T12:53:53.443Z,0.57
2022-12-09T12:56:25.846Z,0.40
2022-12-09T12:59:06.631Z,1.43
2022-12-09T13:01:37.405Z,0.40
2022-12-09T13:04:17.304Z,0.40
2022-12-09T13:06:51.812Z,0.57
2022-12-09T13:09:26.477Z,1.20
2022-12-09T13:12:01.959Z,0.50
2022-12-09T13:14:35.241Z,1.90
2022-12-09T13:17:10.019Z,0.90
2022-12-09T13:19:42.826Z,1.63
2022-12-09T13:22:20.977Z,1.80
2022-12-09T13:25:00.160Z,2.60
2022-12-09T13:27:38.192Z,3.00
2022-12-09T13:30:12.713Z,1.90
2022-12-09T13:33:22.241Z,3.20
2022-12-09T13:35:56.721Z,1.73
2022-12-09T13:38:34.217Z,2.10
2022-12-09T13:41:22.461Z,3.63
2022-12-09T13:43:50.688Z,2.70
2022-12-09T13:46:23.821Z,1.27
2022-12-09T13:48:55.817Z,0.50
2022-12-09T13:51:27.570Z,1.60
2022-12-09T13:54:07.117Z,2.63
2022-12-09T13:56:37.977Z,1.80
2022-12-09T13:59:38.363Z,0.70
2022-12-09T14:02:22.079Z,1.80
2022-12-09T14:05:00.098Z,0.93
2022-12-09T14:07:35.207Z,1.33
2022-12-09T14:10:06.688Z,1.67
2022-12-09T14:13:04.993Z,1.00
2022-12-09T14:15:38.841Z,2.30
2022-12-09T14:18:28.797Z,1.43
2022-12-09T14:21:33.606Z,1.07
2022-12-09T14:24:34.564Z,1.37
2022-12-09T14:27:18.560Z,0.77
2022-12-09T14:30:06.160Z,2.10
2022-12-09T14:32:36.753Z,1.90
2022-12-09T14:35:22.538Z,0.90
2022-12-09T14:38:01.579Z,1.53
2022-12-09T14:40:59.373Z,1.47
2022-12-09T14:44:02.784Z,2.10
2022-12-09T14:46:35.737Z,2.63
2022-12-09T14:49:17.069Z,1.57
2022-12-09T14:51:47.553Z,2.30
2022-12-09T14:54:20.000Z,4.60
2022-12-09T14:56:51.502Z,2.00
2022-12-09T14:59:21.821Z,2.80
2022-12-09T15:01:57.241Z,1.20
2022-12-09T15:04:29.914Z,1.90
2022-12-09T15:07:12.159Z,4.30
2022-12-09T15:09:48.966Z,4.93
2022-12-09T15:12:17.645Z,5.17
2022-12-09T15:14:47.064Z,4.83
2022-12-09T15:17:23.065Z,3.30
2022-12-09T15:20:01.730Z,8.43
2022-12-09T15:22:32.598Z,8.57
2022-12-09T15:25:03.180Z,6.90
2022-12-09T15:27:31.913Z,6.00
2022-12-09T15:30:00.256Z,2.57
2022-12-09T15:32:31.769Z,3.13
2022-12-09T15:35:18.874Z,1.30
2022-12-09T15:37:48.246Z,1.73
2022-12-09T15:40:22.281Z,2.40
2022-12-09T15:42:55.484Z,1.23
2022-12-09T15:45:25.911Z,2.03
2022-12-09T15:47:59.200Z,1.90
2022-12-09T15:50:33.099Z,1.30
2022-12-09T15:53:07.005Z,0.60
2022-12-09T15:55:39.585Z,2.37
2022-12-09T15:58:13.299Z,1.40
2022-12-09T16:00:47.203Z,1.73
2022-12-09T16:03:20.510Z,1.37
2022-12-09T16:05:54.235Z,2.20
2022-12-09T16:08:23.271Z,1.90
2022-12-09T16:10:54.318Z,0.93
2022-12-09T16:13:22.618Z,2.17
2022-12-09T16:15:52.983Z,2.53
2022-12-09T16:18:25.966Z,2.37
2022-12-09T16:21:22.381Z,1.80
2022-12-09T16:23:53.975Z,2.20
2022-12-09T16:26:29.518Z,1.07
2022-12-09T16:29:01.026Z,3.47
2022-12-09T16:31:29.776Z,2.30
2022-12-09T16:33:59.578Z,4.07
2022-12-09T16:36:30.109Z,2.60
2022-12-09T16:39:35.013Z,2.87
2022-12-09T16:42:03.531Z,3.30
2022-12-09T16:44:35.473Z,4.07
2022-12-09T16:47:16.232Z,6.40
2022-12-09T16:49:48.752Z,4.53
2022-12-09T16:52:20.315Z,3.87
2022-12-09T16:54:50.470Z,1.90
2022-12-09T16:57:20.681Z,4.37
2022-12-09T16:59:49.404Z,4.03
2022-12-09T17:02:25.371Z,5.30
2022-12-09T17:04:55.101Z,3.30
2022-12-09T17:07:23.365Z,6.47
2022-12-09T17:09:51.737Z,8.37
2022-12-09T17:12:20.073Z,5.97
2022-12-09T17:14:48.442Z,4.07
2022-12-09T17:17:16.773Z,4.27
2022-12-09T17:19:45.077Z,5.60
2022-12-09T17:22:14.819Z,4.20
2022-12-09T17:24:45.904Z,3.30
2022-12-09T17:27:16.749Z,7.20
2022-12-09T17:29:46.394Z,6.10
2022-12-09T17:32:14.947Z,4.33
2022-12-09T17:34:43.274Z,4.90
2022-12-09T17:37:12.293Z,3.93
2022-12-09T17:39:41.980Z,3.73
2022-12-09T17:42:10.188Z,2.97
2022-12-09T17:44:39.599Z,4.33
2022-12-09T17:47:08.034Z,5.47
2022-12-09T17:49:36.275Z,3.87
2022-12-09T17:52:04.878Z,2.23
2022-12-09T17:54:33.358Z,2.37
2022-12-09T17:57:03.059Z,5.63
2022-12-09T17:59:31.455Z,4.43
2022-12-09T18:01:59.889Z,3.27
2022-12-09T18:04:28.176Z,5.77
2022-12-09T18:06:56.422Z,7.27
2022-12-09T18:09:25.012Z,3.63
2022-12-09T18:11:53.255Z,5.80
2022-12-09T18:14:22.959Z,4.57
2022-12-09T18:16:51.233Z,4.37
2022-12-09T18:19:20.923Z,2.40
2022-12-09T18:21:49.308Z,2.77
2022-12-09T18:24:18.388Z,2.63
2022-12-09T18:26:46.680Z,3.10
2022-12-09T18:29:15.492Z,4.60
2022-12-09T18:31:46.148Z,3.53
2022-12-09T18:34:14.457Z,4.63
2022-12-09T18:36:43.059Z,4.77
2022-12-09T18:39:11.346Z,4.37
2022-12-09T18:41:39.678Z,4.53
2022-12-09T18:44:08.803Z,5.50
2022-12-09T18:46:39.645Z,4.10
2022-12-09T18:49:12.149Z,4.53
2022-12-09T18:51:42.122Z,6.23
2022-12-09T18:54:12.039Z,5.93
2022-12-09T18:56:40.242Z,4.60
2022-12-09T18:59:09.528Z,2.10
2022-12-09T19:01:40.757Z,3.50
2022-12-09T19:04:14.184Z,3.03
2022-12-09T19:06:44.415Z,2.80
2022-12-09T19:09:15.868Z,3.53
2022-12-09T19:11:46.199Z,5.33
2022-12-09T19:14:15.265Z,5.43
2022-12-09T19:16:44.627Z,4.57
2022-12-09T19:19:15.893Z,5.50
2022-12-09T19:21:44.864Z,4.93
2022-12-09T19:24:16.027Z,3.73
2022-12-09T19:26:44.820Z,4.30
2022-12-09T19:29:14.181Z,10.00
2022-12-09T19:31:44.793Z,9.83
2022-12-09T19:34:17.362Z,4.90
2022-12-09T19:36:46.494Z,5.77
2022-12-09T19:39:15.946Z,3.90
2022-12-09T19:41:45.348Z,9.10
2022-12-09T19:44:31.003Z,4.60
2022-12-09T19:47:04.172Z,4.90
2022-12-09T19:49:33.905Z,6.17
2022-12-09T19:52:03.513Z,4.60
2022-12-09T19:54:31.755Z,2.20
2022-12-09T19:57:00.118Z,3.93
2022-12-09T19:59:28.875Z,5.77
2022-12-09T20:01:57.173Z,2.50
2022-12-09T20:07:16.231Z,3.87
2022-12-09T20:09:44.448Z,3.27
2022-12-09T20:12:12.772Z,3.33
2022-12-09T20:14:41.435Z,4.00
2022-12-09T20:17:09.692Z,4.17
2022-12-09T20:19:37.921Z,3.40
2022-12-09T20:22:06.519Z,3.50
2022-12-09T20:24:36.126Z,6.97
2022-12-09T20:27:04.396Z,4.20
2022-12-09T20:29:37.243Z,1.73
2022-12-09T20:32:06.631Z,2.30
2022-12-09T20:34:35.273Z,4.80
2022-12-09T20:37:03.868Z,5.43
2022-12-09T20:39:32.231Z,6.40
2022-12-09T20:42:02.072Z,3.27
2022-12-09T20:44:32.477Z,4.60
2022-12-09T20:47:00.769Z,5.13
2022-12-09T20:49:29.985Z,5.93
2022-12-09T20:51:58.709Z,3.33
2022-12-09T20:54:27.171Z,6.10
2022-12-09T20:56:55.478Z,6.00
2022-12-09T20:59:25.401Z,5.50
2022-12-09T21:01:54.364Z,4.70
2022-12-09T21:04:22.818Z,5.20
2022-12-09T21:06:51.247Z,4.23
2022-12-09T21:09:22.370Z,7.60
2022-12-09T21:11:51.683Z,6.40
2022-12-09T21:14:21.285Z,4.37
2022-12-09T21:16:51.524Z,6.90
2022-12-09T21:19:25.209Z,6.43
2022-12-09T21:21:54.605Z,6.03
2022-12-09T21:24:24.297Z,3.50
2022-12-09T21:26:55.483Z,6.53
2022-12-09T21:29:28.414Z,9.33
2022-12-09T21:32:01.965Z,6.27
2022-12-09T21:34:30.400Z,8.07
2022-12-09T21:36:59.156Z,4.60
2022-12-09T21:39:31.519Z,6.33
2022-12-09T21:41:59.742Z,4.00
2022-12-09T21:44:28.428Z,6.67
2022-12-09T21:46:56.710Z,2.90
2022-12-09T21:49:26.545Z,5.63
2022-12-09T21:51:54.806Z,3.40
2022-12-09T21:54:23.155Z,2.20
2022-12-09T21:56:51.480Z,4.00
2022-12-09T21:59:20.485Z,2.97
2022-12-09T22:01:48.762Z,4.30
2022-12-09T22:04:17.921Z,6.67
2022-12-09T22:06:49.349Z,3.43
2022-12-09T22:09:20.790Z,7.90
2022-12-09T22:11:49.092Z,5.33
2022-12-09T22:14:17.527Z,3.70
2022-12-09T22:16:47.015Z,4.83
2022-12-09T22:19:17.507Z,5.23
2022-12-09T22:21:47.510Z,5.17
2022-12-09T22:24:16.446Z,3.87
2022-12-09T22:26:45.334Z,5.20
2022-12-09T22:29:15.503Z,3.20
2022-12-09T22:31:44.716Z,3.10
2022-12-09T22:34:14.664Z,4.17
2022-12-09T22:36:43.398Z,2.77
2022-12-09T22:39:15.627Z,2.40
2022-12-09T22:41:45.906Z,4.13
2022-12-09T22:44:15.828Z,3.23
2022-12-09T22:46:44.707Z,2.90
2022-12-09T22:49:16.505Z,3.03
2022-12-09T22:51:45.434Z,3.03
2022-12-09T22:54:15.652Z,2.13
2022-12-09T22:56:44.904Z,3.17
2022-12-09T22:59:15.917Z,3.07
2022-12-09T23:01:46.034Z,2.17
2022-12-09T23:04:16.246Z,2.40
2022-12-09T23:06:45.047Z,2.30
2022-12-09T23:09:20.406Z,3.17
2022-12-09T23:11:49.111Z,2.00
2022-12-09T23:14:17.956Z,4.47
2022-12-09T23:16:47.416Z,2.67
2022-12-09T23:19:15.752Z,3.30
2022-12-09T23:21:44.533Z,1.77
2022-12-09T23:24:21.172Z,3.03
2022-12-09T23:26:53.104Z,2.23
2022-12-09T23:29:21.492Z,4.97
2022-12-09T23:31:49.782Z,2.23
2022-12-09T23:34:18.489Z,1.43
2022-12-09T23:36:46.792Z,2.27
2022-12-09T23:39:18.534Z,2.83
2022-12-09T23:41:47.654Z,1.40
2022-12-09T23:44:17.986Z,1.30
2022-12-09T23:46:46.571Z,1.73
2022-12-09T23:49:15.039Z,3.73
2022-12-09T23:51:44.934Z,3.53
2022-12-09T23:54:15.628Z,2.17
2022-12-09T23:56:49.923Z,2.80
2022-12-09T23:59:20.532Z,2.10
